Aérodrome :
LOGIN :

S'inscrire | Disclaimer

   EN    FR    IT 

 










Légende :    VFR   VFR Marginal   IFR   IFR Intensif   IFR Très Intensif
Visi : 
Plafond : 
>= 8 km
>= 3000ft
5 à 8 km
1000 à 3000 ft
1500m à 5 km
500 à 1000 ft
800 à 1500m
200 à 500 ft
< 800m
< 200 ft
Symboles :   Orages  Brouillard  Fortes neiges  Fortes précipitations  Vent > 20 kt
SIGMETs :   Divers  Orages  Givrage  Turbulence  Onde Orograph.  Cendres Volcan.







- Altitude de l'aérodrome : 1249 ft


ETSN - Neuburg AB

DERNIER METAR :
  • 241531Z 08003KT 9999 FEW020 SCT220 21/16 Q1017 BLU+FCST CANCEL

METARs EXPIRÉS :
  • 241520Z 09003KT 9999 FEW020 SCT220 20/16 Q1017 BLU+BLU+
  • 241320Z 07003KT 9999 SCT012 BKN200 20/16 Q1018 BLU+BLU+ TEMPO GRN

TAF TAF ETSN
Valide du 24 à 14h jusqu'au 24 à 23h UTC


241340Z 2414/2423 VRB03KT 9999 NSW SCT030 BKN200
TEMPO 2414/2421 VRB12G22KT 4000 SHRA SCT020 BKN030CB
PROB30 2414/2421 VRB15G30KT 2000 TSRA SCT010 BKN020CB BY ETGL
Pas de NOTAMs connus pour ce terrain.



MET'MAP, la Météo Aéronautique d'un coup d'oeil ! - Copyright ORBIFLY Décembre 2007 - Disclaimer

ORBIFLY MET'MAP TEAM :

Programmation & Développement : Alexandra Zaïnal
Conception & Développement : Baudouin d'Aumeries
Co-Programmation & Développement : Marc-Olivier Méhu
Soutien technique & logistique : Manuel Goepfert

Contact : metmap@orbifly.com




SOURCES & CREDITS :

   NOAA